Time;durP1;ratioP1;P1;durP2;ratioP2;P2;SDS_P1;SDS_P2;PMS_P1;PMS_P2;Temp;Humidity;BMP_temperature;BMP_pressure;BME280_temperature;BME280_humidity;BME280_pressure;Samples;Min_cycle;Max_cycle;Signal;HPM_P1;HPM_P2
2023/10/06 00:02:15;;;;;;;;;11.33;9.00;;;;;;;;5100020;27;45227;-75
2023/10/06 00:04:41;;;;;;;;;9.33;8.33;;;;;;;;5100015;27;45370;-75
2023/10/06 00:07:08;;;;;;;;;11.00;10.00;;;;;;;;5100011;27;45361;-76
2023/10/06 00:09:33;;;;;;;;;12.00;12.00;;;;;;;;5100017;27;45398;-76
2023/10/06 00:11:59;;;;;;;;;12.00;10.00;;;;;;;;5100068;27;45342;-76
2023/10/06 00:14:40;;;;;;;;;6.33;5.33;;;;;;;;5099998;27;46717;-75
2023/10/06 00:17:13;;;;;;;;;9.67;9.67;;;;;;;;5100048;27;45405;-76
2023/10/06 00:19:39;;;;;;;;;12.00;9.33;;;;;;;;5100202;27;45279;-76
2023/10/06 00:24:41;;;;;;;;;12.67;11.00;;;;;;;;5098806;27;45372;-76
2023/10/06 00:27:10;;;;;;;;;11.33;9.67;;;;;;;;5100410;27;45260;-76
2023/10/06 00:29:36;;;;;;;;;9.67;9.67;;;;;;;;5102388;27;45445;-76
2023/10/06 00:32:21;;;;;;;;;13.00;11.33;;;;;;;;5085038;27;46382;-75
2023/10/06 00:34:47;;;;;;;;;11.33;9.67;;;;;;;;5103261;27;46169;-76
2023/10/06 00:37:13;;;;;;;;;8.00;8.00;;;;;;;;5084728;27;45861;-76
2023/10/06 00:39:38;;;;;;;;;9.67;9.67;;;;;;;;5103158;27;45149;-76
2023/10/06 00:42:04;;;;;;;;;9.33;9.33;;;;;;;;5103335;27;45211;-76
2023/10/06 00:44:30;;;;;;;;;11.00;11.00;;;;;;;;5101835;27;48019;-75
2023/10/06 00:46:58;;;;;;;;;9.67;9.67;;;;;;;;5084735;27;45216;-75
2023/10/06 00:49:24;;;;;;;;;10.67;10.33;;;;;;;;5084531;27;45346;-76
2023/10/06 00:51:49;;;;;;;;;10.67;9.67;;;;;;;;5084348;27;46234;-76
2023/10/06 00:54:14;;;;;;;;;7.67;7.00;;;;;;;;5101780;27;46033;-76
2023/10/06 00:56:40;;;;;;;;;10.00;9.33;;;;;;;;5102048;27;45397;-76
2023/10/06 00:59:05;;;;;;;;;11.00;9.67;;;;;;;;5084757;27;45284;-76
2023/10/06 01:01:33;;;;;;;;;9.00;9.00;;;;;;;;5102769;27;45330;-75
2023/10/06 01:04:02;;;;;;;;;9.33;7.00;;;;;;;;5102905;27;45261;-75
2023/10/06 01:06:33;;;;;;;;;11.67;9.00;;;;;;;;5102759;27;45423;-75
2023/10/06 01:09:06;;;;;;;;;10.33;9.67;;;;;;;;5102980;27;45331;-75
2023/10/06 01:11:40;;;;;;;;;9.33;8.33;;;;;;;;5102869;27;45244;-75
2023/10/06 01:14:06;;;;;;;;;10.00;9.00;;;;;;;;5102707;27;45337;-75
2023/10/06 01:16:34;;;;;;;;;11.33;10.67;;;;;;;;5102399;27;45464;-75
2023/10/06 01:19:14;;;;;;;;;8.33;8.33;;;;;;;;5102914;27;45190;-75
2023/10/06 01:21:40;;;;;;;;;8.00;7.00;;;;;;;;5102574;27;45325;-75
2023/10/06 01:24:11;;;;;;;;;14.33;12.67;;;;;;;;5102298;27;46015;-76
2023/10/06 01:26:41;;;;;;;;;9.00;8.50;;;;;;;;5084075;27;45447;-75
2023/10/06 01:29:06;;;;;;;;;9.67;9.67;;;;;;;;5095745;27;45359;-76
2023/10/06 01:31:33;;;;;;;;;10.67;9.00;;;;;;;;5082023;28;45225;-75
2023/10/06 01:33:59;;;;;;;;;10.00;10.00;;;;;;;;5081972;28;45429;-75
2023/10/06 01:36:25;;;;;;;;;9.00;9.00;;;;;;;;5081935;28;45150;-75
2023/10/06 01:38:50;;;;;;;;;9.33;9.00;;;;;;;;5081374;28;45123;-75
2023/10/06 01:41:15;;;;;;;;;12.67;12.00;;;;;;;;5063436;28;46023;-75
2023/10/06 01:43:40;;;;;;;;;11.00;11.00;;;;;;;;5081711;28;45193;-75
2023/10/06 01:46:12;;;;;;;;;9.67;8.33;;;;;;;;5081936;28;45439;-76
2023/10/06 01:48:37;;;;;;;;;10.67;10.67;;;;;;;;5082120;28;45272;-75
2023/10/06 01:51:08;;;;;;;;;13.00;10.00;;;;;;;;5081574;28;45656;-75
2023/10/06 01:53:33;;;;;;;;;12.00;11.00;;;;;;;;5081591;28;45302;-75
2023/10/06 01:56:06;;;;;;;;;11.67;11.67;;;;;;;;5063138;28;45546;-75
2023/10/06 01:58:31;;;;;;;;;11.67;10.67;;;;;;;;5081901;28;45720;-75
2023/10/06 02:00:56;;;;;;;;;8.00;7.67;;;;;;;;5081304;28;45347;-76
2023/10/06 02:03:23;;;;;;;;;11.33;9.67;;;;;;;;5081635;28;45315;-75
2023/10/06 02:05:48;;;;;;;;;11.00;9.67;;;;;;;;5081417;28;45358;-75
2023/10/06 02:08:23;;;;;;;;;8.33;8.00;;;;;;;;5081798;28;45302;-75
2023/10/06 02:10:50;;;;;;;;;9.33;8.00;;;;;;;;5081288;28;45368;-75
2023/10/06 02:13:21;;;;;;;;;10.33;8.00;;;;;;;;5081259;28;46061;-75
2023/10/06 02:15:56;;;;;;;;;10.00;8.00;;;;;;;;5081091;28;45561;-75
2023/10/06 02:18:21;;;;;;;;;9.00;8.67;;;;;;;;5063115;28;45300;-75
2023/10/06 02:20:46;;;;;;;;;11.00;10.33;;;;;;;;5077663;27;45912;-76
2023/10/06 02:23:13;;;;;;;;;12.00;11.33;;;;;;;;5101320;27;46548;-75
2023/10/06 02:25:39;;;;;;;;;11.33;9.67;;;;;;;;5101218;27;45338;-76
2023/10/06 02:28:05;;;;;;;;;10.67;9.33;;;;;;;;5101739;27;45547;-75
2023/10/06 02:30:33;;;;;;;;;12.00;9.00;;;;;;;;5101192;27;45337;-75
2023/10/06 02:33:03;;;;;;;;;13.00;10.00;;;;;;;;5100940;27;45301;-75
2023/10/06 02:35:28;;;;;;;;;10.33;10.00;;;;;;;;5081849;27;45859;-75
2023/10/06 02:37:57;;;;;;;;;8.67;7.33;;;;;;;;5083024;27;45343;-75
2023/10/06 02:40:29;;;;;;;;;11.00;9.67;;;;;;;;5101225;27;45483;-75
2023/10/06 02:42:56;;;;;;;;;10.00;10.00;;;;;;;;5101380;27;46059;-76
2023/10/06 02:45:21;;;;;;;;;11.00;11.00;;;;;;;;5101164;27;45342;-75
2023/10/06 02:47:47;;;;;;;;;10.67;10.67;;;;;;;;5101500;27;45391;-75
2023/10/06 02:50:20;;;;;;;;;13.33;11.33;;;;;;;;5100473;27;45225;-76
2023/10/06 02:52:46;;;;;;;;;13.67;10.67;;;;;;;;5100946;27;45368;-75
2023/10/06 02:55:12;;;;;;;;;14.67;12.00;;;;;;;;5100816;27;45348;-75
2023/10/06 02:57:40;;;;;;;;;10.67;10.67;;;;;;;;5082793;27;45427;-75
2023/10/06 03:02:46;;;;;;;;;12.33;9.33;;;;;;;;5100801;27;45223;-76
2023/10/06 03:05:17;;;;;;;;;11.00;11.00;;;;;;;;5082528;27;45693;-75
2023/10/06 03:07:46;;;;;;;;;10.67;9.67;;;;;;;;5101291;27;45339;-75
2023/10/06 03:10:11;;;;;;;;;9.67;9.67;;;;;;;;5100820;27;45158;-76
2023/10/06 03:12:39;;;;;;;;;9.33;8.67;;;;;;;;5100752;27;46073;-75
2023/10/06 03:15:09;;;;;;;;;10.67;9.33;;;;;;;;5100818;27;45299;-76
2023/10/06 03:17:34;;;;;;;;;10.00;10.00;;;;;;;;5099827;27;45328;-76
2023/10/06 03:20:11;;;;;;;;;12.00;12.00;;;;;;;;5100466;27;45305;-75
2023/10/06 03:22:38;;;;;;;;;12.33;12.00;;;;;;;;5099931;27;45563;-75
2023/10/06 03:25:14;;;;;;;;;12.00;11.00;;;;;;;;5100434;27;45307;-75
2023/10/06 03:27:40;;;;;;;;;9.33;8.67;;;;;;;;5100865;27;45289;-75
2023/10/06 03:30:18;;;;;;;;;13.00;10.00;;;;;;;;5085132;27;45217;-75
2023/10/06 03:32:48;;;;;;;;;13.67;11.00;;;;;;;;5079832;28;45298;-76
2023/10/06 03:38:08;;;;;;;;;14.67;9.00;;;;;;;;5080093;28;45205;-75
2023/10/06 03:41:36;;;;;;;;;12.67;10.67;;;;;;;;5079749;28;45236;-75
2023/10/06 03:44:03;;;;;;;;;7.33;7.00;;;;;;;;5066217;28;46004;-76
2023/10/06 03:46:20;;;;;;;;;12.67;11.00;;;;;;;;5076734;27;45367;-75
2023/10/06 03:48:48;;;;;;;;;11.00;10.33;;;;;;;;5066751;27;45587;-76
2023/10/06 03:51:14;;;;;;;;;13.67;10.67;;;;;;;;5100233;27;45520;-75
2023/10/06 03:53:40;;;;;;;;;8.00;8.00;;;;;;;;5100179;27;45157;-76
2023/10/06 03:56:06;;;;;;;;;10.00;10.00;;;;;;;;5080473;27;45273;-75
2023/10/06 03:58:32;;;;;;;;;10.67;10.33;;;;;;;;5100472;27;45437;-75
2023/10/06 04:00:58;;;;;;;;;11.00;10.67;;;;;;;;5100052;27;45460;-75
2023/10/06 04:03:23;;;;;;;;;13.00;10.33;;;;;;;;5103044;27;46233;-76
2023/10/06 04:05:49;;;;;;;;;10.33;9.00;;;;;;;;5103818;27;45389;-76
2023/10/06 04:08:21;;;;;;;;;11.67;10.33;;;;;;;;5085708;27;45417;-75
2023/10/06 04:10:57;;;;;;;;;10.33;9.33;;;;;;;;5103557;27;45413;-75
2023/10/06 04:13:23;;;;;;;;;9.00;9.00;;;;;;;;5103753;27;46193;-75
2023/10/06 04:15:52;;;;;;;;;10.67;10.00;;;;;;;;5103530;27;45318;-76
2023/10/06 04:18:18;;;;;;;;;12.67;12.00;;;;;;;;5102460;27;45162;-75
2023/10/06 04:20:45;;;;;;;;;11.00;10.00;;;;;;;;5103540;27;45178;-75
2023/10/06 04:23:11;;;;;;;;;9.67;9.67;;;;;;;;5103666;27;45608;-75
2023/10/06 04:25:37;;;;;;;;;10.33;10.00;;;;;;;;5103236;27;45679;-75
2023/10/06 04:28:08;;;;;;;;;10.00;9.00;;;;;;;;5085309;27;45347;-75
2023/10/06 04:30:34;;;;;;;;;11.00;10.67;;;;;;;;5103333;27;45262;-75
2023/10/06 04:32:59;;;;;;;;;12.00;10.00;;;;;;;;5084936;27;47514;-75
2023/10/06 04:35:24;;;;;;;;;10.67;9.00;;;;;;;;5103180;27;45279;-75
2023/10/06 04:37:50;;;;;;;;;13.33;11.00;;;;;;;;5103562;27;45191;-75
2023/10/06 04:40:17;;;;;;;;;14.33;12.00;;;;;;;;5101733;27;45399;-76
2023/10/06 04:42:42;;;;;;;;;10.67;9.00;;;;;;;;5064549;28;46968;-74
2023/10/06 04:45:12;;;;;;;;;12.33;11.00;;;;;;;;5082727;28;45373;-75
2023/10/06 04:47:40;;;;;;;;;12.00;10.67;;;;;;;;5082678;28;45225;-75
2023/10/06 04:50:09;;;;;;;;;12.00;11.33;;;;;;;;5082660;28;45441;-75
2023/10/06 04:52:34;;;;;;;;;10.67;10.67;;;;;;;;5082437;28;46372;-76
2023/10/06 04:55:01;;;;;;;;;12.00;10.67;;;;;;;;5066820;27;45347;-75
2023/10/06 04:57:26;;;;;;;;;13.00;13.00;;;;;;;;5102951;27;45331;-76
2023/10/06 04:59:52;;;;;;;;;13.00;13.00;;;;;;;;5102369;27;45185;-76
2023/10/06 05:02:18;;;;;;;;;16.33;15.00;;;;;;;;5102462;27;46317;-77
2023/10/06 05:04:44;;;;;;;;;15.33;14.33;;;;;;;;5084046;27;45319;-76
2023/10/06 05:07:09;;;;;;;;;14.67;14.00;;;;;;;;5102952;27;45211;-76
2023/10/06 05:09:34;;;;;;;;;14.00;13.33;;;;;;;;5102670;27;45351;-76
2023/10/06 05:11:59;;;;;;;;;15.67;13.00;;;;;;;;5084006;27;47469;-75
2023/10/06 05:14:25;;;;;;;;;11.67;11.00;;;;;;;;5101192;27;45308;-76
2023/10/06 05:16:51;;;;;;;;;14.67;13.33;;;;;;;;5102162;27;45195;-75
2023/10/06 05:19:17;;;;;;;;;16.67;14.33;;;;;;;;5083633;27;46926;-76
2023/10/06 05:21:42;;;;;;;;;16.33;14.33;;;;;;;;5102001;27;45327;-76
2023/10/06 05:24:08;;;;;;;;;15.67;13.67;;;;;;;;5083886;27;45917;-75
2023/10/06 05:26:33;;;;;;;;;17.00;15.33;;;;;;;;5102944;27;45401;-76
2023/10/06 05:28:58;;;;;;;;;18.33;15.67;;;;;;;;5096263;27;45477;-76
2023/10/06 05:31:24;;;;;;;;;20.00;17.67;;;;;;;;5082294;28;45431;-76
2023/10/06 05:33:51;;;;;;;;;15.33;13.00;;;;;;;;5082043;28;45367;-78
2023/10/06 05:36:16;;;;;;;;;15.00;13.67;;;;;;;;5063659;28;45259;-77
2023/10/06 05:38:41;;;;;;;;;19.67;15.67;;;;;;;;5081954;28;45208;-77
2023/10/06 05:41:11;;;;;;;;;17.33;17.33;;;;;;;;5063452;28;47320;-78
2023/10/06 05:43:36;;;;;;;;;11.67;11.00;;;;;;;;5063827;28;45377;-76
2023/10/06 05:46:03;;;;;;;;;17.33;16.00;;;;;;;;5081913;28;45343;-78
2023/10/06 05:48:30;;;;;;;;;14.00;13.00;;;;;;;;5086629;27;45350;-76
2023/10/06 05:51:04;;;;;;;;;16.00;14.00;;;;;;;;5101940;27;46141;-77
2023/10/06 05:53:34;;;;;;;;;10.00;10.00;;;;;;;;5083603;27;45396;-77
2023/10/06 05:56:02;;;;;;;;;17.33;15.00;;;;;;;;5083713;27;45205;-76
2023/10/06 05:58:30;;;;;;;;;15.67;14.67;;;;;;;;5102008;27;45364;-76
2023/10/06 06:01:05;;;;;;;;;16.00;13.67;;;;;;;;5101425;27;46044;-77
2023/10/06 06:03:30;;;;;;;;;17.33;15.00;;;;;;;;5101930;27;45360;-78
2023/10/06 06:05:57;;;;;;;;;19.67;16.67;;;;;;;;5101828;27;45238;-78
2023/10/06 06:08:22;;;;;;;;;22.67;20.33;;;;;;;;5083446;27;47351;-79
2023/10/06 06:10:48;;;;;;;;;18.33;18.33;;;;;;;;5101456;27;45191;-76
2023/10/06 06:13:14;;;;;;;;;17.67;17.67;;;;;;;;5100892;27;45231;-76
2023/10/06 06:15:39;;;;;;;;;21.67;19.67;;;;;;;;5083378;27;45475;-76
2023/10/06 06:18:04;;;;;;;;;25.67;22.33;;;;;;;;5101787;27;45267;-76
2023/10/06 06:20:30;;;;;;;;;20.00;17.67;;;;;;;;5101484;27;45482;-75
2023/10/06 06:22:58;;;;;;;;;18.67;17.33;;;;;;;;5101871;27;45225;-74
2023/10/06 06:25:24;;;;;;;;;25.00;22.67;;;;;;;;5101440;27;45373;-75
2023/10/06 06:27:50;;;;;;;;;17.67;15.33;;;;;;;;5101537;27;45355;-75
2023/10/06 06:30:21;;;;;;;;;21.67;20.33;;;;;;;;5084567;27;45352;-75
2023/10/06 06:32:50;;;;;;;;;23.00;19.33;;;;;;;;5081335;28;45344;-76
2023/10/06 06:35:19;;;;;;;;;26.00;23.67;;;;;;;;5081265;28;45287;-75
2023/10/06 06:37:45;;;;;;;;;21.33;19.67;;;;;;;;5088012;27;45441;-74
2023/10/06 06:40:12;;;;;;;;;24.67;24.00;;;;;;;;5100588;27;45830;-75
2023/10/06 06:42:38;;;;;;;;;23.00;22.00;;;;;;;;5094168;27;45260;-74
2023/10/06 06:45:06;;;;;;;;;31.33;26.67;;;;;;;;5081719;27;45426;-75
2023/10/06 06:47:31;;;;;;;;;28.33;26.33;;;;;;;;5094841;27;46193;-75
2023/10/06 06:49:59;;;;;;;;;29.00;26.00;;;;;;;;5082914;27;45338;-75
2023/10/06 06:52:24;;;;;;;;;29.00;27.33;;;;;;;;5081487;27;45308;-75
2023/10/06 06:54:49;;;;;;;;;29.00;25.67;;;;;;;;5085705;27;45240;-75
2023/10/06 06:57:17;;;;;;;;;28.00;24.00;;;;;;;;5080723;28;45349;-75
2023/10/06 06:59:44;;;;;;;;;32.00;29.00;;;;;;;;5080944;28;45469;-75
2023/10/06 07:02:12;;;;;;;;;27.00;27.00;;;;;;;;5080319;28;45305;-75
2023/10/06 07:04:37;;;;;;;;;28.33;21.33;;;;;;;;5061784;28;45334;-75
2023/10/06 07:07:03;;;;;;;;;28.33;25.33;;;;;;;;5080111;27;45467;-76
2023/10/06 07:09:28;;;;;;;;;23.00;22.33;;;;;;;;5080645;28;46002;-75
2023/10/06 07:11:56;;;;;;;;;24.33;23.00;;;;;;;;5080878;28;45332;-75
2023/10/06 07:14:21;;;;;;;;;22.33;20.67;;;;;;;;5080458;27;45393;-75
2023/10/06 07:16:47;;;;;;;;;21.00;20.00;;;;;;;;5080438;28;45341;-76
2023/10/06 07:19:14;;;;;;;;;24.67;23.33;;;;;;;;5080312;27;45278;-75
2023/10/06 07:21:39;;;;;;;;;26.67;26.67;;;;;;;;5078734;28;45382;-75
2023/10/06 07:24:05;;;;;;;;;27.67;23.67;;;;;;;;5080107;28;45244;-75
2023/10/06 07:26:31;;;;;;;;;28.00;25.00;;;;;;;;5078969;28;47189;-76
2023/10/06 07:28:58;;;;;;;;;26.33;23.00;;;;;;;;5085651;27;45247;-76
2023/10/06 07:31:27;;;;;;;;;20.00;18.67;;;;;;;;5100015;27;45350;-75
2023/10/06 07:33:52;;;;;;;;;18.67;18.00;;;;;;;;5082446;27;45389;-76
2023/10/06 07:36:17;;;;;;;;;25.00;19.33;;;;;;;;5081457;27;45873;-75
2023/10/06 07:38:43;;;;;;;;;24.67;24.67;;;;;;;;5081615;27;47418;-75
2023/10/06 07:41:09;;;;;;;;;25.00;21.33;;;;;;;;5101123;27;45346;-75
2023/10/06 07:43:35;;;;;;;;;22.67;22.00;;;;;;;;5100068;27;45338;-76
2023/10/06 07:46:07;;;;;;;;;25.00;25.00;;;;;;;;5100167;27;45373;-75
2023/10/06 07:48:34;;;;;;;;;32.67;27.67;;;;;;;;5100439;27;46430;-76
2023/10/06 07:51:09;;;;;;;;;31.67;30.67;;;;;;;;5100523;27;45385;-76
2023/10/06 07:53:38;;;;;;;;;32.67;29.33;;;;;;;;5100835;27;45342;-75
2023/10/06 07:56:07;;;;;;;;;37.00;31.67;;;;;;;;5081636;27;45654;-75
2023/10/06 07:58:39;;;;;;;;;37.33;27.00;;;;;;;;5099923;27;45362;-75
2023/10/06 08:01:05;;;;;;;;;35.67;32.00;;;;;;;;5100187;27;45182;-76
2023/10/06 08:03:31;;;;;;;;;36.67;30.00;;;;;;;;5082449;27;45320;-75
2023/10/06 08:05:59;;;;;;;;;29.33;27.00;;;;;;;;5100332;27;45401;-76
2023/10/06 08:08:25;;;;;;;;;29.67;27.67;;;;;;;;5100582;27;45310;-75
2023/10/06 08:10:52;;;;;;;;;26.67;26.00;;;;;;;;5099705;27;45334;-76
2023/10/06 08:13:18;;;;;;;;;29.00;27.00;;;;;;;;5100665;27;45199;-77
2023/10/06 08:15:44;;;;;;;;;25.00;23.67;;;;;;;;5082923;27;46018;-75
2023/10/06 08:18:09;;;;;;;;;24.67;24.33;;;;;;;;5100482;27;45393;-76
2023/10/06 08:20:35;;;;;;;;;25.00;24.33;;;;;;;;5106775;27;45233;-75
2023/10/06 08:23:00;;;;;;;;;29.67;28.00;;;;;;;;5104869;27;45843;-77
2023/10/06 08:25:26;;;;;;;;;20.67;19.67;;;;;;;;5084472;27;46056;-79
2023/10/06 08:27:51;;;;;;;;;20.67;20.00;;;;;;;;5109534;27;45543;-79
2023/10/06 08:30:17;;;;;;;;;22.33;19.67;;;;;;;;5100551;27;45302;-82
2023/10/06 08:32:53;;;;;;;;;17.67;16.67;;;;;;;;5097502;27;45413;-81
2023/10/06 08:35:19;;;;;;;;;17.33;16.33;;;;;;;;5092163;27;44712;-76
2023/10/06 08:37:46;;;;;;;;;15.67;15.67;;;;;;;;5097975;27;45895;-76
2023/10/06 08:40:16;;;;;;;;;20.67;19.33;;;;;;;;5109547;27;45221;-77
2023/10/06 08:42:51;;;;;;;;;18.33;16.33;;;;;;;;5109551;27;45579;-76
2023/10/06 08:45:19;;;;;;;;;16.00;16.00;;;;;;;;5093802;27;47067;-75
2023/10/06 08:47:45;;;;;;;;;19.67;17.00;;;;;;;;5076757;28;47054;-75
2023/10/06 08:50:13;;;;;;;;;20.67;19.67;;;;;;;;5079040;28;45343;-75
2023/10/06 08:52:39;;;;;;;;;24.67;21.00;;;;;;;;5078351;28;44595;-76
2023/10/06 08:55:06;;;;;;;;;23.67;21.00;;;;;;;;5098082;27;45498;-76
2023/10/06 08:57:31;;;;;;;;;27.00;21.33;;;;;;;;5097269;27;46491;-76
2023/10/06 08:59:56;;;;;;;;;18.67;18.67;;;;;;;;5099057;27;45464;-75
2023/10/06 09:02:25;;;;;;;;;23.33;20.00;;;;;;;;5099479;27;45320;-75
2023/10/06 09:04:50;;;;;;;;;20.67;18.00;;;;;;;;5114593;27;45582;-75
2023/10/06 09:07:17;;;;;;;;;20.00;19.00;;;;;;;;5115702;27;45495;-75
2023/10/06 09:09:43;;;;;;;;;20.67;19.67;;;;;;;;5100758;27;45456;-76
2023/10/06 09:12:09;;;;;;;;;19.00;16.67;;;;;;;;5117802;27;44775;-76
2023/10/06 09:14:49;;;;;;;;;22.33;18.00;;;;;;;;5114910;27;47166;-76
2023/10/06 09:17:16;;;;;;;;;19.67;18.00;;;;;;;;5110902;27;45562;-75
2023/10/06 09:19:50;;;;;;;;;17.33;16.67;;;;;;;;5114668;27;45345;-75
2023/10/06 09:22:16;;;;;;;;;18.33;18.00;;;;;;;;5119908;27;44675;-77
2023/10/06 09:24:42;;;;;;;;;18.00;17.00;;;;;;;;5100447;27;45964;-76
2023/10/06 09:27:20;;;;;;;;;16.00;16.00;;;;;;;;5116384;27;45234;-75
2023/10/06 09:29:45;;;;;;;;;20.67;20.33;;;;;;;;5107229;27;45278;-75
2023/10/06 09:32:21;;;;;;;;;20.00;18.67;;;;;;;;5094876;27;45255;-76
2023/10/06 09:34:46;;;;;;;;;17.33;17.33;;;;;;;;5118051;27;45254;-78
2023/10/06 09:37:18;;;;;;;;;19.00;16.67;;;;;;;;5117650;27;45147;-76
2023/10/06 09:39:45;;;;;;;;;17.67;17.67;;;;;;;;5115702;27;45454;-75
2023/10/06 09:42:10;;;;;;;;;22.00;20.33;;;;;;;;5093700;27;45511;-75
2023/10/06 09:44:36;;;;;;;;;23.67;22.00;;;;;;;;5093661;27;47050;-75
2023/10/06 09:47:03;;;;;;;;;20.67;20.67;;;;;;;;5091780;27;48120;-75
2023/10/06 09:49:30;;;;;;;;;20.33;18.00;;;;;;;;5095955;27;45549;-74
2023/10/06 09:52:01;;;;;;;;;18.33;16.00;;;;;;;;5117822;27;45388;-77
2023/10/06 09:54:27;;;;;;;;;17.00;17.00;;;;;;;;5117944;27;45743;-76
2023/10/06 09:56:55;;;;;;;;;16.00;15.00;;;;;;;;5101564;27;46348;-78
2023/10/06 09:59:21;;;;;;;;;16.67;15.33;;;;;;;;5103597;27;45432;-78
2023/10/06 10:01:47;;;;;;;;;19.00;17.33;;;;;;;;5106404;27;45691;-79
2023/10/06 10:04:13;;;;;;;;;18.67;16.00;;;;;;;;5108972;27;45331;-78
2023/10/06 10:06:44;;;;;;;;;17.00;16.33;;;;;;;;5108748;27;45525;-79
2023/10/06 10:09:16;;;;;;;;;18.67;17.67;;;;;;;;5106751;27;45408;-80
2023/10/06 10:12:02;;;;;;;;;16.33;15.00;;;;;;;;5082128;27;45406;-79
2023/10/06 10:14:36;;;;;;;;;15.00;14.00;;;;;;;;5099509;27;45496;-81
2023/10/06 10:17:13;;;;;;;;;16.00;15.33;;;;;;;;5084589;27;48173;-79
2023/10/06 10:19:40;;;;;;;;;15.00;15.00;;;;;;;;5093032;27;45574;-78
2023/10/06 10:22:05;;;;;;;;;15.33;14.00;;;;;;;;5110390;27;45422;-78
2023/10/06 10:24:34;;;;;;;;;13.00;13.00;;;;;;;;5107517;27;45375;-79
2023/10/06 10:26:59;;;;;;;;;14.00;13.00;;;;;;;;5115702;27;45459;-79
2023/10/06 10:29:25;;;;;;;;;13.00;13.00;;;;;;;;5116250;27;45187;-78
2023/10/06 10:31:51;;;;;;;;;11.00;10.00;;;;;;;;5107809;27;45306;-78
2023/10/06 10:34:22;;;;;;;;;12.33;12.33;;;;;;;;5109194;27;45446;-80
2023/10/06 10:36:48;;;;;;;;;12.33;12.33;;;;;;;;5112230;27;45378;-79
2023/10/06 10:39:16;;;;;;;;;13.00;12.00;;;;;;;;5109055;27;45386;-78
2023/10/06 10:41:41;;;;;;;;;13.33;11.33;;;;;;;;5102275;27;45397;-78
2023/10/06 10:44:11;;;;;;;;;10.33;9.67;;;;;;;;5095358;27;46192;-78
2023/10/06 10:46:47;;;;;;;;;10.00;9.67;;;;;;;;5116669;27;46196;-78
2023/10/06 10:49:13;;;;;;;;;11.00;9.67;;;;;;;;5120671;27;45885;-77
2023/10/06 10:51:48;;;;;;;;;9.33;9.33;;;;;;;;5087162;27;44835;-76
2023/10/06 10:54:14;;;;;;;;;13.00;11.67;;;;;;;;5106931;27;45525;-76
2023/10/06 10:56:43;;;;;;;;;10.33;9.67;;;;;;;;5116196;27;45014;-76
2023/10/06 10:59:08;;;;;;;;;9.00;9.00;;;;;;;;5120433;27;44665;-78
2023/10/06 11:01:37;;;;;;;;;5.00;5.00;;;;;;;;5120717;27;45286;-77
2023/10/06 11:06:40;;;;;;;;;11.00;11.00;;;;;;;;5109529;27;45334;-77
2023/10/06 11:09:41;;;;;;;;;14.00;12.33;;;;;;;;5113731;27;45315;-78
2023/10/06 11:12:15;;;;;;;;;12.00;11.67;;;;;;;;5114168;27;45384;-79
2023/10/06 11:14:43;;;;;;;;;9.67;9.67;;;;;;;;5117327;27;45276;-77
2023/10/06 11:17:11;;;;;;;;;14.67;13.33;;;;;;;;5114186;27;45346;-79
2023/10/06 11:19:38;;;;;;;;;10.67;9.33;;;;;;;;5114812;27;45406;-77
2023/10/06 11:22:13;;;;;;;;;10.00;10.00;;;;;;;;5094425;27;45325;-78
2023/10/06 11:24:44;;;;;;;;;10.33;9.67;;;;;;;;5104212;27;45315;-79
2023/10/06 11:27:12;;;;;;;;;13.67;12.33;;;;;;;;5099811;27;45535;-78
2023/10/06 11:29:37;;;;;;;;;9.00;8.00;;;;;;;;5097711;27;46050;-79
2023/10/06 11:32:02;;;;;;;;;9.00;7.33;;;;;;;;5119993;27;45274;-77
2023/10/06 11:34:27;;;;;;;;;6.67;6.00;;;;;;;;5102267;27;46265;-76
2023/10/06 11:36:56;;;;;;;;;9.00;9.00;;;;;;;;5119351;27;45251;-77
2023/10/06 11:39:23;;;;;;;;;7.67;7.67;;;;;;;;5109991;27;45234;-77
2023/10/06 11:41:50;;;;;;;;;12.00;11.00;;;;;;;;5101025;27;44690;-77
2023/10/06 11:44:15;;;;;;;;;10.33;9.00;;;;;;;;5118295;27;46358;-77
2023/10/06 11:46:47;;;;;;;;;4.00;4.00;;;;;;;;5114869;27;45718;-76
2023/10/06 11:49:14;;;;;;;;;8.00;8.00;;;;;;;;5119424;27;45183;-76
2023/10/06 11:51:39;;;;;;;;;11.67;10.67;;;;;;;;5118893;27;44598;-76
2023/10/06 11:54:05;;;;;;;;;9.00;9.00;;;;;;;;5112439;27;45268;-78
2023/10/06 11:56:31;;;;;;;;;7.00;7.00;;;;;;;;5111568;27;45398;-78
2023/10/06 11:58:56;;;;;;;;;11.33;10.67;;;;;;;;5092512;27;45466;-78
2023/10/06 12:01:32;;;;;;;;;8.33;7.00;;;;;;;;5102936;27;45416;-78
2023/10/06 12:03:59;;;;;;;;;7.00;7.00;;;;;;;;5099486;27;45495;-79
2023/10/06 12:06:27;;;;;;;;;10.50;10.00;;;;;;;;5094668;27;46090;-79
2023/10/06 12:08:52;;;;;;;;;6.00;6.00;;;;;;;;5106593;27;44771;-79
2023/10/06 12:11:19;;;;;;;;;11.33;10.00;;;;;;;;5105591;27;45339;-78
2023/10/06 12:13:45;;;;;;;;;10.00;10.00;;;;;;;;5114404;27;44696;-77
2023/10/06 12:16:13;;;;;;;;;9.67;9.00;;;;;;;;5108086;27;45386;-76
2023/10/06 12:18:39;;;;;;;;;8.00;7.67;;;;;;;;5085947;27;45370;-77
2023/10/06 12:21:06;;;;;;;;;8.67;8.00;;;;;;;;5111898;27;45347;-75
2023/10/06 12:23:32;;;;;;;;;10.67;8.33;;;;;;;;5113036;27;45279;-75
2023/10/06 12:25:57;;;;;;;;;8.33;7.00;;;;;;;;5093131;27;46833;-75
2023/10/06 12:28:22;;;;;;;;;12.00;12.00;;;;;;;;5112685;27;45327;-75
2023/10/06 12:30:47;;;;;;;;;11.00;11.00;;;;;;;;5090535;28;45443;-75
2023/10/06 12:33:13;;;;;;;;;10.33;10.33;;;;;;;;5088528;28;45264;-75
2023/10/06 12:35:39;;;;;;;;;9.00;9.00;;;;;;;;5094785;28;45317;-74
2023/10/06 12:38:06;;;;;;;;;9.00;8.67;;;;;;;;5101532;28;45021;-77
2023/10/06 12:40:31;;;;;;;;;7.00;7.00;;;;;;;;5106300;28;44779;-77
2023/10/06 12:42:57;;;;;;;;;9.67;9.00;;;;;;;;5102798;28;45327;-76
2023/10/06 12:45:23;;;;;;;;;8.33;8.33;;;;;;;;5101234;28;45265;-76
2023/10/06 12:47:48;;;;;;;;;9.00;9.00;;;;;;;;5082668;28;44724;-76
2023/10/06 12:50:17;;;;;;;;;7.33;6.67;;;;;;;;5063110;28;45427;-80
2023/10/06 12:52:42;;;;;;;;;6.67;6.67;;;;;;;;5102716;27;45268;-80
2023/10/06 12:55:10;;;;;;;;;7.00;7.00;;;;;;;;5108424;27;45552;-80
2023/10/06 12:57:38;;;;;;;;;9.67;9.67;;;;;;;;5106242;27;46290;-80
2023/10/06 13:00:05;;;;;;;;;10.33;8.33;;;;;;;;5098303;27;45228;-79
2023/10/06 13:02:32;;;;;;;;;6.67;6.67;;;;;;;;5102228;27;45463;-78
2023/10/06 13:04:57;;;;;;;;;8.33;7.67;;;;;;;;5102179;27;45958;-77
2023/10/06 13:07:23;;;;;;;;;6.00;6.00;;;;;;;;5103910;27;45453;-78
2023/10/06 13:09:49;;;;;;;;;8.00;6.67;;;;;;;;5102189;27;45342;-78
2023/10/06 13:12:15;;;;;;;;;7.67;7.67;;;;;;;;5103139;27;45208;-77
2023/10/06 13:14:42;;;;;;;;;7.33;7.33;;;;;;;;5108089;27;45302;-78
2023/10/06 13:17:08;;;;;;;;;10.00;9.67;;;;;;;;5110920;27;45300;-78
2023/10/06 13:19:33;;;;;;;;;8.00;7.00;;;;;;;;5106238;27;45228;-79
2023/10/06 13:21:58;;;;;;;;;7.00;7.00;;;;;;;;5104249;27;45346;-79
2023/10/06 13:24:24;;;;;;;;;6.50;6.50;;;;;;;;5108149;27;45538;-79
2023/10/06 13:26:50;;;;;;;;;11.50;8.25;;;;;;;;5106258;27;45274;-79
2023/10/06 13:29:15;;;;;;;;;9.00;8.50;;;;;;;;5088787;27;45161;-79
2023/10/06 13:31:40;;;;;;;;;9.50;8.50;;;;;;;;5093435;27;45401;-80
2023/10/06 13:34:07;;;;;;;;;11.67;10.67;;;;;;;;5070280;27;48126;-79
2023/10/06 13:36:32;;;;;;;;;11.67;11.67;;;;;;;;5104814;27;45334;-79
2023/10/06 13:38:57;;;;;;;;;11.00;10.00;;;;;;;;5105406;27;45536;-78
2023/10/06 13:41:23;;;;;;;;;9.50;9.50;;;;;;;;5093146;27;45216;-78
2023/10/06 13:43:49;;;;;;;;;9.67;9.00;;;;;;;;5087832;27;45276;-79
2023/10/06 13:46:17;;;;;;;;;10.00;9.67;;;;;;;;5094582;28;45325;-79
2023/10/06 13:48:42;;;;;;;;;9.00;8.33;;;;;;;;5091689;27;45410;-80
2023/10/06 13:51:09;;;;;;;;;6.75;6.50;;;;;;;;5089540;28;45362;-80
2023/10/06 13:53:35;;;;;;;;;8.33;8.00;;;;;;;;5084322;28;45373;-79
2023/10/06 13:56:00;;;;;;;;;8.50;8.00;;;;;;;;5085249;28;45356;-79
2023/10/06 13:58:26;;;;;;;;;11.33;8.33;;;;;;;;5068708;28;45300;-78
2023/10/06 14:00:51;;;;;;;;;8.33;8.33;;;;;;;;5083809;28;45279;-78
2023/10/06 14:03:18;;;;;;;;;8.33;8.00;;;;;;;;5090803;28;45597;-79
2023/10/06 14:05:49;;;;;;;;;9.00;7.75;;;;;;;;5089816;28;45295;-77
2023/10/06 14:08:17;;;;;;;;;6.67;6.33;;;;;;;;5104706;28;44693;-77
2023/10/06 14:10:42;;;;;;;;;7.00;6.00;;;;;;;;5090171;27;46240;-76
2023/10/06 14:13:11;;;;;;;;;6.67;6.67;;;;;;;;5096887;27;47333;-79
2023/10/06 14:15:44;;;;;;;;;6.25;6.25;;;;;;;;5090409;27;45158;-79
2023/10/06 14:18:12;;;;;;;;;5.00;4.25;;;;;;;;5114442;27;45314;-78
2023/10/06 14:20:38;;;;;;;;;8.00;6.00;;;;;;;;5113058;27;45374;-80
2023/10/06 14:23:03;;;;;;;;;4.25;4.25;;;;;;;;5114754;27;45972;-79
2023/10/06 14:25:33;;;;;;;;;9.75;8.50;;;;;;;;5110232;27;45378;-79
2023/10/06 14:27:58;;;;;;;;;9.67;8.33;;;;;;;;5098157;27;45351;-78
2023/10/06 14:30:25;;;;;;;;;7.00;7.00;;;;;;;;5077732;28;46976;-78
2023/10/06 14:33:08;;;;;;;;;5.75;5.75;;;;;;;;5097029;28;45979;-78
2023/10/06 14:36:20;;;;;;;;;9.75;9.00;;;;;;;;5079648;28;46052;-78
2023/10/06 14:46:34;;;;;;;;;4.50;4.50;;;;;;;;5113586;27;45301;-78
2023/10/06 14:49:03;;;;;;;;;7.50;6.25;;;;;;;;5101168;27;45215;-78